Time;durP1;ratioP1;P1;durP2;ratioP2;P2;SDS_P1;SDS_P2;PMS_P1;PMS_P2;Temp;Humidity;BMP_temperature;BMP_pressure;BME280_temperature;BME280_humidity;BME280_pressure;Samples;Min_cycle;Max_cycle;Signal;HPM_P1;HPM_P2
2022/03/18 00:01:06;;;;;;;;;;;22.00;39.50;;;;;;6319763;27;20899;-49
2022/03/18 00:04:07;;;;;;;;;;;22.40;39.70;;;;;;6318168;27;20364;-50
2022/03/18 00:07:09;;;;;;;;;;;22.20;39.60;;;;;;6324131;27;19999;-52
2022/03/18 00:10:11;;;;;;;;;;;22.30;39.60;;;;;;6319372;27;20834;-51
2022/03/18 00:13:12;;;;;;;;;;;22.20;39.60;;;;;;6309079;27;21118;-52
2022/03/18 00:16:14;;;;;;;;;;;22.30;39.70;;;;;;6313897;27;20789;-51
2022/03/18 00:19:15;;;;;;;;;;;21.60;39.30;;;;;;6300830;27;20012;-53
2022/03/18 00:22:18;;;;;;;;;;;22.20;39.70;;;;;;6318277;27;19931;-49
2022/03/18 00:25:20;;;;;;;;;;;22.20;39.60;;;;;;6315399;27;20033;-51
2022/03/18 00:28:22;;;;;;;;;;;22.00;39.50;;;;;;6319430;27;20047;-49
2022/03/18 00:31:23;;;;;;;;;;;22.40;39.80;;;;;;6319724;27;20751;-51
2022/03/18 00:34:25;;;;;;;;;;;22.20;39.70;;;;;;6318906;27;20070;-55
2022/03/18 00:37:28;;;;;;;;;;;21.70;39.40;;;;;;6321225;27;19959;-50
2022/03/18 00:40:33;;;;;;;;;;;22.00;39.30;;;;;;6302509;27;20799;-51
2022/03/18 00:43:34;;;;;;;;;;;22.10;39.60;;;;;;6316987;27;19923;-51
2022/03/18 00:46:36;;;;;;;;;;;21.80;39.50;;;;;;6317005;27;19929;-52
2022/03/18 00:52:54;;;;;;;;;;;22.00;39.70;;;;;;6319114;27;19973;-49
2022/03/18 00:55:55;;;;;;;;;;;21.90;39.60;;;;;;6302369;27;20033;-52
2022/03/18 00:58:57;;;;;;;;;;;22.10;39.70;;;;;;6290292;27;19931;-52
2022/03/18 01:01:59;;;;;;;;;;;21.60;39.50;;;;;;6319634;27;19931;-54
2022/03/18 01:05:00;;;;;;;;;;;21.90;39.70;;;;;;6320512;27;19974;-51
2022/03/18 01:08:02;;;;;;;;;;;22.10;39.80;;;;;;6322494;27;20085;-52
2022/03/18 01:11:04;;;;;;;;;;;21.90;39.60;;;;;;6321109;27;20709;-51
2022/03/18 01:14:05;;;;;;;;;;;22.00;39.60;;;;;;6310751;27;20932;-50
2022/03/18 01:17:07;;;;;;;;;;;21.90;39.60;;;;;;6323640;27;20838;-51
2022/03/18 01:20:09;;;;;;;;;;;21.70;39.50;;;;;;6323679;27;19960;-51
2022/03/18 01:23:10;;;;;;;;;;;21.80;39.50;;;;;;6322864;27;20042;-49
2022/03/18 01:26:13;;;;;;;;;;;21.70;39.60;;;;;;6302645;27;19931;-55
2022/03/18 01:29:14;;;;;;;;;;;21.90;39.60;;;;;;6321889;27;19977;-50
2022/03/18 01:32:15;;;;;;;;;;;21.90;39.50;;;;;;6328055;27;19923;-54
2022/03/18 01:35:17;;;;;;;;;;;21.70;39.60;;;;;;6323263;27;19931;-51
2022/03/18 01:38:18;;;;;;;;;;;21.90;39.70;;;;;;6321494;27;20896;-52
2022/03/18 01:41:21;;;;;;;;;;;21.90;39.60;;;;;;6325957;27;19956;-51
2022/03/18 01:44:22;;;;;;;;;;;22.00;39.70;;;;;;6285251;27;19932;-55
2022/03/18 01:47:24;;;;;;;;;;;22.00;39.80;;;;;;6323380;27;20060;-53
2022/03/18 01:50:26;;;;;;;;;;;21.50;39.40;;;;;;6323085;27;19948;-53
2022/03/18 01:53:27;;;;;;;;;;;21.80;40.20;;;;;;6324041;27;21402;-53
2022/03/18 01:56:29;;;;;;;;;;;21.40;39.40;;;;;;6319181;27;19965;-52
2022/03/18 01:59:30;;;;;;;;;;;21.40;39.40;;;;;;6320807;27;19930;-53
2022/03/18 02:02:32;;;;;;;;;;;21.40;39.40;;;;;;6325978;27;19938;-49
2022/03/18 02:05:34;;;;;;;;;;;21.60;39.50;;;;;;6318904;27;20787;-49
2022/03/18 02:08:35;;;;;;;;;;;21.40;39.40;;;;;;6321753;27;19923;-55
2022/03/18 02:11:38;;;;;;;;;;;21.60;39.50;;;;;;6319907;27;19936;-54
2022/03/18 02:14:41;;;;;;;;;;;21.70;39.50;;;;;;6308100;27;20727;-50
2022/03/18 02:17:42;;;;;;;;;;;21.50;39.40;;;;;;6305517;27;20254;-53
2022/03/18 02:20:44;;;;;;;;;;;21.40;39.40;;;;;;6323750;27;20046;-49
2022/03/18 02:23:45;;;;;;;;;;;21.60;39.50;;;;;;6324001;27;19937;-51
2022/03/18 02:26:47;;;;;;;;;;;21.30;39.30;;;;;;6323525;27;20373;-52
2022/03/18 02:29:48;;;;;;;;;;;21.50;39.40;;;;;;6320518;27;19955;-53
2022/03/18 02:32:50;;;;;;;;;;;21.30;39.40;;;;;;6305114;27;19970;-52
2022/03/18 02:35:51;;;;;;;;;;;21.60;39.60;;;;;;6319537;27;20041;-54
2022/03/18 02:38:53;;;;;;;;;;;21.40;39.40;;;;;;6321198;27;19938;-50
2022/03/18 02:41:55;;;;;;;;;;;21.60;39.60;;;;;;6320726;27;19931;-52
2022/03/18 02:44:57;;;;;;;;;;;21.50;39.40;;;;;;6327204;27;19958;-51
2022/03/18 02:47:58;;;;;;;;;;;21.80;39.60;;;;;;6322555;27;19970;-51
2022/03/18 02:51:00;;;;;;;;;;;21.70;39.70;;;;;;6322076;27;20016;-51
2022/03/18 02:54:02;;;;;;;;;;;21.30;39.40;;;;;;6323610;27;20065;-52
2022/03/18 02:57:04;;;;;;;;;;;21.50;39.50;;;;;;6319511;27;19937;-52
2022/03/18 03:00:06;;;;;;;;;;;21.60;39.50;;;;;;6324762;27;20011;-50
2022/03/18 03:03:07;;;;;;;;;;;21.40;39.40;;;;;;6305516;27;19946;-49
2022/03/18 03:09:25;;;;;;;;;;;21.20;39.30;;;;;;6321466;27;20042;-52
2022/03/18 03:12:27;;;;;;;;;;;21.50;39.50;;;;;;6323326;27;20703;-53
2022/03/18 03:15:28;;;;;;;;;;;21.70;39.50;;;;;;6319996;27;22033;-52
2022/03/18 03:18:30;;;;;;;;;;;21.70;39.70;;;;;;6325129;27;21041;-49
2022/03/18 03:21:31;;;;;;;;;;;21.70;39.70;;;;;;6322843;27;19974;-52
2022/03/18 03:24:35;;;;;;;;;;;21.30;39.50;;;;;;6316608;27;20286;-49
2022/03/18 03:27:36;;;;;;;;;;;21.20;39.30;;;;;;6314545;27;20449;-49
2022/03/18 03:30:38;;;;;;;;;;;21.80;39.50;;;;;;6314096;27;19966;-50
2022/03/18 03:33:39;;;;;;;;;;;21.60;40.20;;;;;;6322822;27;20897;-52
2022/03/18 03:36:40;;;;;;;;;;;21.60;39.60;;;;;;6318958;27;20050;-50
2022/03/18 03:39:42;;;;;;;;;;;21.10;39.30;;;;;;6321270;27;19971;-52
2022/03/18 03:42:45;;;;;;;;;;;21.50;39.40;;;;;;6311750;27;20133;-47
2022/03/18 03:45:47;;;;;;;;;;;21.20;39.20;;;;;;6309346;27;20030;-52
2022/03/18 03:48:48;;;;;;;;;;;21.60;39.50;;;;;;6311266;27;20421;-50
2022/03/18 03:51:49;;;;;;;;;;;21.40;39.40;;;;;;6307111;27;20091;-51
2022/03/18 03:54:51;;;;;;;;;;;21.20;39.30;;;;;;6313446;27;19938;-51
2022/03/18 03:57:53;;;;;;;;;;;21.10;39.20;;;;;;6304642;27;20285;-50
2022/03/18 04:00:54;;;;;;;;;;;21.30;39.20;;;;;;6293282;27;20062;-49
2022/03/18 04:03:56;;;;;;;;;;;21.00;39.10;;;;;;6307453;27;20291;-53
2022/03/18 04:06:57;;;;;;;;;;;21.40;39.40;;;;;;6310992;27;20250;-51
2022/03/18 04:09:59;;;;;;;;;;;21.40;39.40;;;;;;6308148;27;20605;-49
2022/03/18 04:13:00;;;;;;;;;;;21.40;39.30;;;;;;6298133;27;20380;-51
2022/03/18 04:16:02;;;;;;;;;;;21.20;39.30;;;;;;6287707;27;20012;-49
2022/03/18 04:19:03;;;;;;;;;;;21.30;39.40;;;;;;6311203;27;19927;-51
2022/03/18 04:22:05;;;;;;;;;;;21.30;39.40;;;;;;6313732;27;19978;-49
2022/03/18 04:25:07;;;;;;;;;;;21.50;39.40;;;;;;6321281;27;20042;-52
2022/03/18 04:28:09;;;;;;;;;;;21.10;39.20;;;;;;6317295;27;19980;-52
2022/03/18 04:31:10;;;;;;;;;;;21.30;39.30;;;;;;6322465;27;19938;-51
2022/03/18 04:34:12;;;;;;;;;;;21.50;39.40;;;;;;6319623;27;20037;-52
2022/03/18 04:37:14;;;;;;;;;;;21.40;39.40;;;;;;6308686;27;20374;-46
2022/03/18 04:40:16;;;;;;;;;;;21.70;39.70;;;;;;6315050;27;19930;-51
2022/03/18 04:43:17;;;;;;;;;;;21.40;39.40;;;;;;6323416;27;19944;-51
2022/03/18 04:46:19;;;;;;;;;;;21.50;39.50;;;;;;6318603;27;20046;-52
2022/03/18 04:49:20;;;;;;;;;;;21.40;39.50;;;;;;6323681;27;20920;-55
2022/03/18 04:52:22;;;;;;;;;;;21.00;39.20;;;;;;6323236;27;19958;-50
2022/03/18 04:55:24;;;;;;;;;;;21.00;39.20;;;;;;6325112;27;20737;-53
2022/03/18 04:58:26;;;;;;;;;;;21.30;39.40;;;;;;6322541;27;19931;-51
2022/03/18 05:01:27;;;;;;;;;;;21.10;39.20;;;;;;6325820;27;19939;-50
2022/03/18 05:04:29;;;;;;;;;;;20.90;39.20;;;;;;6321380;27;19938;-49
2022/03/18 05:07:31;;;;;;;;;;;21.40;39.50;;;;;;6300292;27;19935;-49
2022/03/18 05:10:33;;;;;;;;;;;21.40;39.60;;;;;;6304987;27;20098;-51
2022/03/18 05:13:35;;;;;;;;;;;21.20;39.40;;;;;;6306288;27;25410;-49
2022/03/18 05:16:36;;;;;;;;;;;20.80;39.00;;;;;;6304161;27;21048;-51
2022/03/18 05:19:39;;;;;;;;;;;21.00;39.20;;;;;;6309623;27;20017;-48
2022/03/18 05:22:40;;;;;;;;;;;21.30;39.50;;;;;;6313536;27;20504;-49
2022/03/18 05:25:42;;;;;;;;;;;21.10;39.30;;;;;;6317532;27;20100;-59
2022/03/18 05:28:43;;;;;;;;;;;20.80;39.20;;;;;;6310394;27;19978;-48
2022/03/18 05:31:46;;;;;;;;;;;21.40;39.50;;;;;;6314526;27;20453;-51
2022/03/18 05:34:47;;;;;;;;;;;21.20;39.20;;;;;;6307381;27;19987;-50
2022/03/18 05:37:48;;;;;;;;;;;21.00;39.30;;;;;;6310959;27;20441;-53
2022/03/18 05:40:52;;;;;;;;;;;21.30;39.50;;;;;;6310925;27;19927;-50
2022/03/18 05:43:53;;;;;;;;;;;21.00;39.20;;;;;;6309680;27;20261;-51
2022/03/18 05:46:55;;;;;;;;;;;21.40;39.40;;;;;;6305440;27;24957;-52
2022/03/18 05:50:00;;;;;;;;;;;21.10;39.30;;;;;;6311446;27;20450;-53
2022/03/18 05:53:01;;;;;;;;;;;20.90;39.10;;;;;;6314045;27;20879;-52
2022/03/18 05:59:19;;;;;;;;;;;21.00;39.10;;;;;;6313936;27;20063;-53
2022/03/18 06:02:21;;;;;;;;;;;21.50;39.40;;;;;;6313516;27;20020;-55
2022/03/18 06:05:22;;;;;;;;;;;20.80;39.00;;;;;;6305283;27;20393;-52
2022/03/18 06:14:56;;;;;;;;;;;21.20;39.30;;;;;;6289800;27;19931;-50
2022/03/18 06:17:58;;;;;;;;;;;21.20;39.30;;;;;;6310272;27;20038;-52
2022/03/18 06:20:59;;;;;;;;;;;21.10;39.40;;;;;;6314038;27;20030;-49
2022/03/18 06:24:00;;;;;;;;;;;21.40;39.40;;;;;;6312751;27;19931;-51
2022/03/18 06:27:02;;;;;;;;;;;21.20;39.40;;;;;;6313499;27;19966;-51
2022/03/18 06:30:04;;;;;;;;;;;20.70;39.10;;;;;;6311272;27;20110;-51
2022/03/18 06:33:06;;;;;;;;;;;21.20;39.30;;;;;;6310054;27;20050;-52
2022/03/18 06:36:07;;;;;;;;;;;20.80;39.30;;;;;;6311839;27;21040;-52
2022/03/18 06:39:09;;;;;;;;;;;21.10;39.30;;;;;;6309517;27;19984;-51
2022/03/18 06:42:12;;;;;;;;;;;20.80;39.10;;;;;;6293805;27;20057;-51
2022/03/18 06:45:13;;;;;;;;;;;20.90;39.20;;;;;;6311830;27;19938;-50
2022/03/18 06:48:15;;;;;;;;;;;21.30;39.50;;;;;;6315629;27;19937;-49
2022/03/18 06:51:16;;;;;;;;;;;21.10;39.50;;;;;;6304058;27;19998;-51
2022/03/18 06:54:18;;;;;;;;;;;20.90;39.30;;;;;;6308183;27;19934;-51
2022/03/18 06:57:21;;;;;;;;;;;20.80;39.30;;;;;;6304166;27;20138;-49
2022/03/18 07:00:22;;;;;;;;;;;20.70;39.10;;;;;;6303148;27;19941;-56
2022/03/18 07:03:24;;;;;;;;;;;21.10;39.30;;;;;;6302397;27;20152;-53
2022/03/18 07:06:26;;;;;;;;;;;21.10;39.40;;;;;;6295248;27;19938;-54
2022/03/18 07:09:27;;;;;;;;;;;21.20;39.40;;;;;;6296322;27;20135;-50
2022/03/18 07:12:29;;;;;;;;;;;20.70;39.20;;;;;;6289374;27;19927;-51
2022/03/18 07:15:31;;;;;;;;;;;21.30;39.50;;;;;;6294562;27;20041;-49
2022/03/18 07:18:32;;;;;;;;;;;21.40;39.50;;;;;;6300589;27;20001;-53
2022/03/18 07:21:34;;;;;;;;;;;20.80;39.20;;;;;;6294295;27;19938;-50
2022/03/18 07:24:35;;;;;;;;;;;20.80;39.30;;;;;;6266203;27;20993;-51
2022/03/18 07:27:37;;;;;;;;;;;20.90;39.30;;;;;;6280692;27;19931;-49
2022/03/18 07:30:39;;;;;;;;;;;20.90;39.30;;;;;;6290812;27;20041;-50
2022/03/18 07:33:41;;;;;;;;;;;20.60;38.90;;;;;;6261826;27;19933;-49
2022/03/18 07:36:42;;;;;;;;;;;21.20;39.80;;;;;;6274515;27;20873;-52
2022/03/18 07:39:43;;;;;;;;;;;21.00;39.30;;;;;;6288817;27;20003;-52
2022/03/18 07:42:46;;;;;;;;;;;20.80;39.20;;;;;;6281571;27;19938;-49
2022/03/18 07:45:49;;;;;;;;;;;21.10;39.20;;;;;;6236972;27;19939;-48
2022/03/18 07:48:50;;;;;;;;;;;20.70;38.90;;;;;;6264991;27;19938;-50
2022/03/18 07:51:51;;;;;;;;;;;21.20;39.30;;;;;;6250909;27;19938;-52
2022/03/18 07:54:53;;;;;;;;;;;21.10;39.30;;;;;;6241147;27;20012;-51
2022/03/18 07:57:56;;;;;;;;;;;21.00;39.30;;;;;;6184994;27;19938;-50
2022/03/18 08:00:57;;;;;;;;;;;20.70;38.90;;;;;;6197033;27;19938;-50
2022/03/18 08:03:59;;;;;;;;;;;21.20;39.30;;;;;;6184480;27;19931;-51
2022/03/18 08:07:03;;;;;;;;;;;20.90;39.10;;;;;;6164233;27;20879;-53
2022/03/18 08:10:06;;;;;;;;;;;21.30;39.10;;;;;;6176147;27;19967;-50
2022/03/18 08:13:08;;;;;;;;;;;21.20;39.00;;;;;;6190144;27;20680;-51
2022/03/18 08:16:11;;;;;;;;;;;21.00;38.80;;;;;;6159960;27;19931;-52
2022/03/18 08:19:13;;;;;;;;;;;21.10;39.00;;;;;;6178452;27;21084;-48
2022/03/18 08:22:14;;;;;;;;;;;21.20;39.10;;;;;;6185505;27;19938;-49
2022/03/18 08:25:16;;;;;;;;;;;21.00;39.10;;;;;;6215468;27;19931;-54
2022/03/18 08:28:18;;;;;;;;;;;21.00;38.80;;;;;;6203732;27;19937;-48
2022/03/18 08:31:19;;;;;;;;;;;21.40;38.90;;;;;;6188149;27;21537;-49
2022/03/18 08:34:21;;;;;;;;;;;21.30;38.90;;;;;;6175076;27;19970;-52
2022/03/18 08:40:38;;;;;;;;;;;21.30;39.40;;;;;;6184496;27;20007;-48
2022/03/18 08:43:40;;;;;;;;;;;21.50;38.80;;;;;;6213015;27;19978;-49
2022/03/18 08:46:42;;;;;;;;;;;21.30;38.80;;;;;;6202917;27;20001;-46
2022/03/18 08:49:44;;;;;;;;;;;21.30;38.70;;;;;;6210491;27;20045;-49
2022/03/18 08:52:46;;;;;;;;;;;21.50;39.50;;;;;;6201626;27;19995;-48
2022/03/18 08:55:47;;;;;;;;;;;21.40;38.70;;;;;;6212614;27;21118;-47
2022/03/18 08:58:50;;;;;;;;;;;21.10;38.70;;;;;;6210749;27;19931;-47
2022/03/18 09:01:51;;;;;;;;;;;21.20;38.70;;;;;;6176316;27;20045;-50
2022/03/18 09:04:53;;;;;;;;;;;21.10;38.60;;;;;;6202881;27;20242;-47
2022/03/18 09:07:54;;;;;;;;;;;20.90;38.50;;;;;;6181525;27;21062;-48
2022/03/18 09:10:56;;;;;;;;;;;21.40;38.80;;;;;;6206374;27;19931;-48
2022/03/18 09:13:58;;;;;;;;;;;21.40;38.90;;;;;;6212635;27;19931;-50
2022/03/18 09:17:00;;;;;;;;;;;21.20;38.60;;;;;;6182878;27;22521;-49
2022/03/18 09:20:01;;;;;;;;;;;21.50;38.70;;;;;;6181892;27;19931;-48
2022/03/18 09:23:04;;;;;;;;;;;21.40;38.70;;;;;;6204366;27;20008;-49
2022/03/18 09:26:05;;;;;;;;;;;21.50;38.80;;;;;;6202105;27;19939;-48
2022/03/18 09:29:08;;;;;;;;;;;21.20;38.60;;;;;;6211381;27;19968;-49
2022/03/18 09:32:09;;;;;;;;;;;21.60;38.70;;;;;;6197238;27;19931;-51
2022/03/18 09:35:11;;;;;;;;;;;21.90;38.80;;;;;;6188875;27;20053;-50
2022/03/18 09:38:12;;;;;;;;;;;21.20;38.40;;;;;;6190627;27;19942;-50
2022/03/18 09:41:14;;;;;;;;;;;21.50;38.60;;;;;;6176038;27;19931;-48
2022/03/18 09:44:16;;;;;;;;;;;21.80;38.70;;;;;;6170859;27;19932;-50
2022/03/18 09:47:21;;;;;;;;;;;21.70;38.60;;;;;;6195411;27;21044;-48
2022/03/18 09:50:23;;;;;;;;;;;21.50;37.80;;;;;;6182515;27;22032;-52
2022/03/18 09:53:25;;;;;;;;;;;21.60;38.50;;;;;;6150988;27;19938;-51
2022/03/18 09:56:26;;;;;;;;;;;21.90;38.80;;;;;;6192473;27;20067;-49
2022/03/18 09:59:29;;;;;;;;;;;21.80;38.50;;;;;;6187445;27;20065;-50
2022/03/18 10:02:33;;;;;;;;;;;21.90;38.60;;;;;;6202138;27;19939;-51
2022/03/18 10:05:35;;;;;;;;;;;21.60;38.40;;;;;;6193711;27;20100;-52
2022/03/18 10:08:48;;;;;;;;;;;21.70;37.90;;;;;;6204659;27;21548;-51
2022/03/18 10:11:50;;;;;;;;;;;21.80;38.30;;;;;;6186850;27;19931;-51
2022/03/18 10:15:01;;;;;;;;;;;21.30;38.20;;;;;;6193279;27;21556;-50
2022/03/18 10:18:03;;;;;;;;;;;21.90;38.50;;;;;;6210207;27;19931;-49
2022/03/18 10:21:08;;;;;;;;;;;21.30;38.20;;;;;;6203310;27;19985;-53
2022/03/18 10:24:10;;;;;;;;;;;21.90;38.40;;;;;;6216546;27;19935;-47
2022/03/18 10:27:13;;;;;;;;;;;22.00;38.40;;;;;;6197498;27;19978;-50
2022/03/18 10:30:20;;;;;;;;;;;21.70;38.20;;;;;;6195889;27;19931;-53
2022/03/18 10:37:04;;;;;;;;;;;21.40;38.00;;;;;;6198466;27;20065;-52
2022/03/18 10:37:06;;;;;;;;;;;21.90;38.30;;;;;;6162485;27;19943;-46
2022/03/18 10:40:07;;;;;;;;;;;21.70;38.20;;;;;;6190861;27;21814;-46
2022/03/18 10:43:09;;;;;;;;;;;21.90;38.30;;;;;;6189289;27;19935;-48
2022/03/18 10:46:12;;;;;;;;;;;21.70;38.20;;;;;;6210267;27;19938;-47
2022/03/18 10:49:14;;;;;;;;;;;21.90;38.00;;;;;;6218807;27;19931;-51
2022/03/18 10:52:15;;;;;;;;;;;21.70;37.80;;;;;;6196917;27;19934;-46
2022/03/18 10:55:19;;;;;;;;;;;22.00;37.90;;;;;;6217577;27;20065;-48
2022/03/18 10:58:21;;;;;;;;;;;21.60;37.80;;;;;;6204491;27;21245;-48
2022/03/18 11:01:23;;;;;;;;;;;22.00;37.90;;;;;;6201560;27;19941;-50
2022/03/18 11:04:26;;;;;;;;;;;22.00;37.90;;;;;;6198715;27;19931;-51
2022/03/18 11:07:30;;;;;;;;;;;21.70;37.50;;;;;;6221652;27;20065;-48
2022/03/18 11:13:51;;;;;;;;;;;21.60;37.60;;;;;;6195747;27;22042;-46
2022/03/18 11:16:53;;;;;;;;;;;21.80;37.70;;;;;;6191592;27;21646;-51
2022/03/18 11:19:54;;;;;;;;;;;22.20;37.90;;;;;;6220143;27;19931;-57
2022/03/18 11:22:56;;;;;;;;;;;22.20;37.90;;;;;;6227247;27;19940;-49
2022/03/18 11:26:00;;;;;;;;;;;22.00;37.70;;;;;;6220095;27;23379;-48
2022/03/18 11:29:05;;;;;;;;;;;21.70;37.50;;;;;;6215501;27;19978;-47
2022/03/18 11:32:20;;;;;;;;;;;21.60;37.50;;;;;;6216884;27;19938;-49
2022/03/18 11:35:22;;;;;;;;;;;21.70;37.60;;;;;;6235845;27;21099;-47
2022/03/18 11:38:25;;;;;;;;;;;22.40;37.80;;;;;;6256826;27;19931;-47
2022/03/18 11:41:28;;;;;;;;;;;21.60;37.40;;;;;;6260238;27;19931;-47
2022/03/18 11:44:44;;;;;;;;;;;21.80;37.40;;;;;;6236348;27;19963;-50
2022/03/18 11:47:45;;;;;;;;;;;21.70;37.50;;;;;;6243017;27;19931;-48
2022/03/18 11:51:19;;;;;;;;;;;22.20;37.70;;;;;;6237672;27;20365;-46
2022/03/18 11:54:26;;;;;;;;;;;21.90;37.40;;;;;;6240609;27;19931;-46
2022/03/18 11:57:28;;;;;;;;;;;22.00;37.50;;;;;;6254229;27;20020;-52
2022/03/18 12:00:44;;;;;;;;;;;22.20;37.50;;;;;;6234937;27;20050;-46
2022/03/18 12:03:46;;;;;;;;;;;21.80;37.30;;;;;;6249080;27;20034;-46
2022/03/18 12:06:58;;;;;;;;;;;21.70;37.40;;;;;;6240122;27;19931;-46
2022/03/18 12:10:00;;;;;;;;;;;21.80;37.30;;;;;;6219553;27;20046;-53
2022/03/18 12:13:03;;;;;;;;;;;22.10;37.40;;;;;;6224265;27;19935;-49
2022/03/18 12:16:04;;;;;;;;;;;22.10;37.40;;;;;;6230857;27;19995;-49
2022/03/18 12:19:11;;;;;;;;;;;22.20;37.60;;;;;;6228241;27;19935;-46
2022/03/18 12:22:12;;;;;;;;;;;22.20;37.40;;;;;;6200034;27;19942;-50
2022/03/18 12:25:14;;;;;;;;;;;22.30;37.50;;;;;;6233943;27;20589;-47
2022/03/18 12:28:16;;;;;;;;;;;22.20;37.40;;;;;;6241231;27;20012;-46
2022/03/18 12:31:20;;;;;;;;;;;22.30;37.50;;;;;;6224640;27;19931;-47
2022/03/18 12:34:22;;;;;;;;;;;22.20;37.30;;;;;;6222458;27;19931;-47
2022/03/18 12:37:24;;;;;;;;;;;22.10;37.20;;;;;;6235519;27;20046;-47
2022/03/18 12:40:26;;;;;;;;;;;22.20;37.20;;;;;;6240566;27;19966;-48
2022/03/18 12:43:31;;;;;;;;;;;22.20;37.20;;;;;;6222100;27;19978;-48
2022/03/18 12:46:33;;;;;;;;;;;22.40;37.40;;;;;;6231710;27;21115;-48
2022/03/18 12:49:35;;;;;;;;;;;22.50;37.30;;;;;;6193490;27;19931;-48
2022/03/18 12:52:42;;;;;;;;;;;22.20;36.80;;;;;;6216768;27;20000;-47
2022/03/18 12:55:46;;;;;;;;;;;22.20;37.10;;;;;;6217998;27;19981;-49
2022/03/18 12:58:59;;;;;;;;;;;22.60;37.20;;;;;;6193488;27;20151;-49
2022/03/18 13:02:17;;;;;;;;;;;22.40;37.10;;;;;;6208195;27;20046;-49
2022/03/18 13:05:19;;;;;;;;;;;22.50;36.90;;;;;;6208942;27;21422;-48
2022/03/18 13:08:22;;;;;;;;;;;22.80;37.00;;;;;;6204818;27;19937;-49
2022/03/18 13:11:30;;;;;;;;;;;22.60;36.80;;;;;;6217859;27;19985;-52
2022/03/18 13:14:35;;;;;;;;;;;22.30;36.60;;;;;;6203050;27;19952;-49
2022/03/18 13:17:37;;;;;;;;;;;22.80;36.80;;;;;;6212479;27;20053;-48
2022/03/18 13:20:40;;;;;;;;;;;22.70;37.70;;;;;;6215125;27;19931;-49
2022/03/18 13:23:42;;;;;;;;;;;22.50;38.60;;;;;;6218843;27;19931;-49
2022/03/18 13:26:46;;;;;;;;;;;22.00;38.50;;;;;;6221207;27;19937;-49
2022/03/18 13:33:01;;;;;;;;;;;22.10;39.10;;;;;;6216221;27;19931;-49
2022/03/18 13:36:02;;;;;;;;;;;21.80;38.70;;;;;;6195876;27;19931;-46
2022/03/18 13:39:05;;;;;;;;;;;22.30;38.90;;;;;;6204391;27;19978;-47
2022/03/18 13:42:07;;;;;;;;;;;22.40;38.90;;;;;;6159715;27;19937;-47
2022/03/18 13:45:21;;;;;;;;;;;22.10;38.40;;;;;;6208209;27;20168;-47
2022/03/18 13:48:24;;;;;;;;;;;22.90;38.60;;;;;;6187280;27;19938;-47
2022/03/18 13:51:30;;;;;;;;;;;22.50;38.20;;;;;;6170085;27;21045;-48
2022/03/18 13:54:41;;;;;;;;;;;22.30;37.90;;;;;;6195364;27;19931;-46
2022/03/18 13:57:44;;;;;;;;;;;22.80;38.00;;;;;;6198778;27;20365;-46
2022/03/18 14:00:45;;;;;;;;;;;22.30;37.50;;;;;;6206386;27;20042;-50
2022/03/18 14:03:54;;;;;;;;;;;22.20;37.60;;;;;;6196665;27;20049;-48
2022/03/18 14:06:56;;;;;;;;;;;22.60;37.70;;;;;;6212772;27;20102;-48
2022/03/18 14:10:18;;;;;;;;;;;22.70;37.50;;;;;;6196063;27;19931;-47
2022/03/18 14:13:25;;;;;;;;;;;22.70;37.50;;;;;;6201071;27;19935;-48
2022/03/18 14:16:26;;;;;;;;;;;22.30;37.10;;;;;;6192963;27;19968;-49
2022/03/18 14:19:37;;;;;;;;;;;22.50;37.20;;;;;;6209730;27;19966;-47
2022/03/18 14:22:41;;;;;;;;;;;23.00;37.30;;;;;;6205989;27;20022;-51
2022/03/18 14:25:43;;;;;;;;;;;22.80;37.10;;;;;;6221502;27;19931;-47
2022/03/18 14:28:46;;;;;;;;;;;22.70;37.00;;;;;;6208622;27;20547;-50
2022/03/18 14:31:48;;;;;;;;;;;23.00;37.00;;;;;;6208789;27;20151;-52
2022/03/18 14:34:52;;;;;;;;;;;22.60;36.90;;;;;;6161060;27;19932;-48
2022/03/18 14:37:53;;;;;;;;;;;23.00;36.90;;;;;;6198739;27;20054;-47
2022/03/18 14:40:55;;;;;;;;;;;23.00;36.80;;;;;;6222084;27;19931;-49
2022/03/18 14:43:57;;;;;;;;;;;22.70;36.70;;;;;;6217696;27;21888;-46
2022/03/18 14:46:59;;;;;;;;;;;23.10;36.90;;;;;;6197417;27;20057;-49
2022/03/18 14:50:01;;;;;;;;;;;23.00;36.90;;;;;;6200073;27;19931;-48
2022/03/18 14:53:03;;;;;;;;;;;22.70;36.60;;;;;;6223063;27;21333;-48
2022/03/18 14:59:20;;;;;;;;;;;23.30;36.80;;;;;;6195749;27;21134;-48
2022/03/18 15:02:21;;;;;;;;;;;23.10;36.60;;;;;;6196573;27;19931;-47
2022/03/18 15:05:23;;;;;;;;;;;23.10;36.80;;;;;;6180651;27;19938;-52
2022/03/18 15:08:24;;;;;;;;;;;22.90;36.90;;;;;;6164789;27;19938;-47
2022/03/18 15:11:26;;;;;;;;;;;22.90;36.50;;;;;;6186579;27;19985;-49
2022/03/18 15:14:28;;;;;;;;;;;23.10;36.50;;;;;;6207670;27;20067;-48
2022/03/18 15:17:31;;;;;;;;;;;22.80;36.40;;;;;;6175858;27;23874;-50
2022/03/18 15:20:32;;;;;;;;;;;23.10;36.40;;;;;;6204300;27;20777;-50
2022/03/18 15:23:35;;;;;;;;;;;23.20;36.60;;;;;;6198435;27;19931;-49
2022/03/18 15:26:38;;;;;;;;;;;23.20;36.60;;;;;;6185182;27;19947;-47
2022/03/18 15:29:40;;;;;;;;;;;22.80;36.10;;;;;;6220271;27;20068;-57
2022/03/18 15:32:42;;;;;;;;;;;23.20;36.50;;;;;;6207991;27;20010;-52
2022/03/18 15:35:46;;;;;;;;;;;22.80;36.90;;;;;;6200910;27;21072;-48
2022/03/18 15:38:50;;;;;;;;;;;23.50;36.50;;;;;;6213154;27;19938;-47
2022/03/18 15:41:52;;;;;;;;;;;23.00;36.10;;;;;;6221622;27;19939;-49
2022/03/18 15:44:54;;;;;;;;;;;22.90;37.00;;;;;;6222036;27;20972;-49
2022/03/18 15:47:56;;;;;;;;;;;23.60;36.50;;;;;;6209164;27;19932;-53
2022/03/18 15:50:59;;;;;;;;;;;23.20;36.30;;;;;;6213050;27;19962;-48
2022/03/18 15:54:02;;;;;;;;;;;23.30;36.90;;;;;;6218882;27;19957;-51
2022/03/18 15:57:03;;;;;;;;;;;23.00;36.20;;;;;;6202954;27;20082;-49
2022/03/18 16:00:06;;;;;;;;;;;22.90;36.10;;;;;;6209528;27;20246;-47
2022/03/18 16:03:14;;;;;;;;;;;23.00;36.10;;;;;;6209856;27;21293;-47
2022/03/18 16:06:16;;;;;;;;;;;22.80;36.00;;;;;;6203555;27;21933;-49
2022/03/18 16:09:17;;;;;;;;;;;23.20;36.20;;;;;;6203533;27;19938;-57
2022/03/18 16:12:21;;;;;;;;;;;22.90;36.10;;;;;;6206785;27;21377;-49
2022/03/18 16:15:27;;;;;;;;;;;23.50;36.20;;;;;;6214306;27;22673;-48
2022/03/18 16:18:29;;;;;;;;;;;22.80;35.90;;;;;;6239888;27;19935;-50
2022/03/18 16:21:31;;;;;;;;;;;23.30;36.20;;;;;;6234866;27;19930;-50
2022/03/18 16:24:32;;;;;;;;;;;23.00;36.00;;;;;;6237096;27;20039;-50
2022/03/18 16:27:34;;;;;;;;;;;23.30;36.20;;;;;;6236548;27;20077;-50
2022/03/18 16:30:36;;;;;;;;;;;23.00;36.00;;;;;;6238529;27;20062;-52
2022/03/18 16:33:38;;;;;;;;;;;23.00;35.90;;;;;;6228524;27;20761;-49
2022/03/18 16:36:41;;;;;;;;;;;23.10;36.10;;;;;;6233006;27;20960;-48
2022/03/18 16:39:42;;;;;;;;;;;23.20;36.00;;;;;;6245948;27;20788;-49
2022/03/18 16:42:45;;;;;;;;;;;22.90;35.90;;;;;;6238178;27;19938;-51
2022/03/18 16:52:15;;;;;;;;;;;23.00;36.00;;;;;;6260428;27;19954;-50
2022/03/18 16:55:21;;;;;;;;;;;23.00;35.90;;;;;;6257272;27;20046;-46
2022/03/18 16:58:22;;;;;;;;;;;23.30;36.00;;;;;;6264232;27;19974;-50
2022/03/18 17:04:37;;;;;;;;;;;23.20;35.90;;;;;;6265968;27;19938;-48
2022/03/18 17:07:39;;;;;;;;;;;23.20;36.00;;;;;;6268775;27;19938;-49
2022/03/18 17:10:40;;;;;;;;;;;23.20;35.90;;;;;;6268815;27;19994;-49
2022/03/18 17:13:42;;;;;;;;;;;23.50;36.20;;;;;;6281723;27;19931;-49
2022/03/18 17:16:43;;;;;;;;;;;22.90;35.80;;;;;;6281725;27;20058;-50
2022/03/18 17:19:45;;;;;;;;;;;23.30;35.90;;;;;;6266917;27;19931;-48
2022/03/18 17:22:46;;;;;;;;;;;23.20;36.10;;;;;;6263892;27;20191;-52
2022/03/18 17:25:47;;;;;;;;;;;23.60;36.10;;;;;;6259811;27;20320;-50
2022/03/18 17:28:49;;;;;;;;;;;23.10;35.80;;;;;;6266061;27;19941;-50
2022/03/18 17:31:51;;;;;;;;;;;23.30;35.90;;;;;;6240781;27;19969;-51
2022/03/18 17:34:53;;;;;;;;;;;23.60;35.90;;;;;;6264510;27;19928;-51
2022/03/18 17:37:56;;;;;;;;;;;22.90;35.50;;;;;;6274095;27;20375;-51
2022/03/18 17:40:57;;;;;;;;;;;23.10;35.60;;;;;;6265997;27;20037;-49
2022/03/18 17:43:58;;;;;;;;;;;23.20;35.70;;;;;;6255799;27;19954;-50
2022/03/18 17:47:02;;;;;;;;;;;23.20;35.80;;;;;;6280095;27;20034;-49
2022/03/18 17:50:04;;;;;;;;;;;22.80;35.40;;;;;;6278591;27;20053;-49
2022/03/18 17:53:05;;;;;;;;;;;22.80;35.40;;;;;;6280253;27;20376;-52
2022/03/18 17:56:07;;;;;;;;;;;23.20;35.60;;;;;;6282098;27;20466;-51
2022/03/18 17:59:10;;;;;;;;;;;23.00;35.50;;;;;;6283926;27;19967;-49
2022/03/18 18:02:11;;;;;;;;;;;22.90;35.40;;;;;;6285734;27;20411;-50
2022/03/18 18:05:13;;;;;;;;;;;23.10;35.40;;;;;;6284500;27;20416;-53
2022/03/18 18:08:16;;;;;;;;;;;23.60;35.70;;;;;;6282462;27;20099;-50
2022/03/18 18:11:18;;;;;;;;;;;23.40;35.80;;;;;;6286058;27;20297;-53
2022/03/18 18:14:19;;;;;;;;;;;22.90;35.50;;;;;;6299136;27;19952;-51
2022/03/18 18:17:22;;;;;;;;;;;23.50;35.80;;;;;;6304339;27;20032;-52
2022/03/18 18:23:39;;;;;;;;;;;22.90;35.30;;;;;;6284303;27;19970;-51